Time;durP1;ratioP1;P1;durP2;ratioP2;P2;SDS_P1;SDS_P2;PMS_P1;PMS_P2;Temp;Humidity;BMP_temperature;BMP_pressure;BME280_temperature;BME280_humidity;BME280_pressure;Samples;Min_cycle;Max_cycle;Signal;HPM_P1;HPM_P2
2023/09/08 00:02:01;;;;;;;7.93;6.90;;;;;;;;;;5010276;28;20530;-67
2023/09/08 00:04:28;;;;;;;8.05;6.78;;;;;;;;;;5010423;28;20518;-67
2023/09/08 00:06:54;;;;;;;8.07;7.25;;;;;;;;;;5010132;28;20506;-68
2023/09/08 00:09:22;;;;;;;8.27;6.38;;;;;;;;;;5010099;28;20496;-67
2023/09/08 00:11:49;;;;;;;8.93;6.57;;;;;;;;;;5009978;28;20061;-68
2023/09/08 00:14:15;;;;;;;8.68;7.10;;;;;;;;;;5010306;28;20410;-68
2023/09/08 00:16:43;;;;;;;9.77;6.45;;;;;;;;;;5010168;28;20403;-67
2023/09/08 00:19:10;;;;;;;10.18;7.32;;;;;;;;;;5010078;28;20050;-67
2023/09/08 00:21:38;;;;;;;11.40;7.45;;;;;;;;;;5009993;28;20052;-67
2023/09/08 00:24:05;;;;;;;10.25;7.75;;;;;;;;;;5009766;28;20137;-67
2023/09/08 00:26:33;;;;;;;8.20;7.28;;;;;;;;;;5010128;28;20492;-68
2023/09/08 00:29:00;;;;;;;8.93;6.78;;;;;;;;;;5010079;28;20056;-67
2023/09/08 00:31:26;;;;;;;12.73;7.15;;;;;;;;;;5012912;28;20084;-67
2023/09/08 00:33:53;;;;;;;13.45;7.53;;;;;;;;;;5013502;28;20140;-67
2023/09/08 00:36:19;;;;;;;10.15;7.03;;;;;;;;;;5013401;28;20050;-67
2023/09/08 00:38:46;;;;;;;9.82;7.38;;;;;;;;;;5013713;28;20393;-68
2023/09/08 00:41:13;;;;;;;8.50;7.00;;;;;;;;;;5013241;28;20615;-67
2023/09/08 00:43:40;;;;;;;9.70;7.13;;;;;;;;;;5013644;28;20047;-67
2023/09/08 00:46:08;;;;;;;8.88;7.13;;;;;;;;;;5013544;28;20056;-68
2023/09/08 00:48:35;;;;;;;14.48;7.80;;;;;;;;;;5013340;28;20499;-68
2023/09/08 00:51:01;;;;;;;10.52;7.55;;;;;;;;;;5012699;28;20049;-67
2023/09/08 00:53:28;;;;;;;10.13;7.53;;;;;;;;;;5013170;28;20512;-67
2023/09/08 00:55:57;;;;;;;9.82;6.68;;;;;;;;;;5013453;28;20052;-67
2023/09/08 00:58:23;;;;;;;7.35;6.50;;;;;;;;;;5012968;28;20050;-68
2023/09/08 01:00:51;;;;;;;9.52;7.43;;;;;;;;;;5012826;28;20049;-68
2023/09/08 01:03:18;;;;;;;7.43;6.63;;;;;;;;;;5013026;28;20450;-68
2023/09/08 01:05:46;;;;;;;8.13;6.65;;;;;;;;;;5012710;28;20056;-67
2023/09/08 01:08:13;;;;;;;8.43;6.88;;;;;;;;;;5013174;28;20539;-67
2023/09/08 01:10:42;;;;;;;9.75;7.50;;;;;;;;;;5012961;28;20407;-68
2023/09/08 01:13:08;;;;;;;7.97;7.00;;;;;;;;;;5012707;28;20483;-67
2023/09/08 01:15:35;;;;;;;9.00;7.28;;;;;;;;;;5012515;28;20052;-67
2023/09/08 01:18:03;;;;;;;8.30;7.28;;;;;;;;;;5012692;28;20056;-67
2023/09/08 01:20:36;;;;;;;9.48;7.40;;;;;;;;;;5012819;28;20071;-68
2023/09/08 01:23:12;;;;;;;8.85;7.45;;;;;;;;;;5012385;28;20056;-68
2023/09/08 01:25:43;;;;;;;11.52;8.02;;;;;;;;;;5013052;28;20637;-67
2023/09/08 01:28:12;;;;;;;11.35;8.25;;;;;;;;;;5012631;28;20046;-67
2023/09/08 01:30:40;;;;;;;12.27;8.35;;;;;;;;;;5012677;28;20560;-67
2023/09/08 01:33:08;;;;;;;8.68;7.55;;;;;;;;;;5012487;28;20879;-67
2023/09/08 01:35:35;;;;;;;8.68;7.35;;;;;;;;;;5012556;28;20145;-67
2023/09/08 01:38:01;;;;;;;11.10;8.55;;;;;;;;;;5012555;28;20133;-68
2023/09/08 01:40:28;;;;;;;10.48;8.02;;;;;;;;;;5012297;28;20052;-68
2023/09/08 01:42:56;;;;;;;9.75;7.07;;;;;;;;;;5011129;28;20042;-67
2023/09/08 01:45:22;;;;;;;10.27;7.47;;;;;;;;;;5012278;28;20510;-67
2023/09/08 01:47:49;;;;;;;9.52;7.43;;;;;;;;;;5012266;28;20290;-67
2023/09/08 01:50:21;;;;;;;11.35;7.50;;;;;;;;;;5012313;28;20042;-67
2023/09/08 01:52:48;;;;;;;8.20;7.10;;;;;;;;;;5011757;28;20085;-67
2023/09/08 01:55:16;;;;;;;10.15;7.75;;;;;;;;;;5011944;28;20065;-68
2023/09/08 01:57:42;;;;;;;9.48;7.10;;;;;;;;;;5011565;28;20646;-68
2023/09/08 02:00:12;;;;;;;9.75;7.85;;;;;;;;;;5011760;28;20045;-67
2023/09/08 02:02:38;;;;;;;11.48;8.13;;;;;;;;;;5011900;28;20056;-67
2023/09/08 02:05:06;;;;;;;10.40;7.75;;;;;;;;;;5011979;28;20137;-68
2023/09/08 02:07:32;;;;;;;8.95;7.35;;;;;;;;;;5011947;28;20052;-67
2023/09/08 02:09:59;;;;;;;8.70;7.38;;;;;;;;;;5011738;28;20137;-67
2023/09/08 02:12:25;;;;;;;11.65;7.78;;;;;;;;;;5011699;28;20136;-67
2023/09/08 02:14:52;;;;;;;13.15;8.20;;;;;;;;;;5011898;28;20068;-68
2023/09/08 02:17:20;;;;;;;9.82;8.00;;;;;;;;;;5011763;28;20524;-68
2023/09/08 02:19:47;;;;;;;12.63;7.65;;;;;;;;;;5011637;28;20042;-67
2023/09/08 02:22:13;;;;;;;9.93;7.70;;;;;;;;;;5011112;28;20050;-68
2023/09/08 02:24:40;;;;;;;9.13;7.53;;;;;;;;;;5011498;28;20057;-67
2023/09/08 02:27:06;;;;;;;9.25;7.72;;;;;;;;;;5011247;28;20529;-67
2023/09/08 02:29:33;;;;;;;9.43;6.97;;;;;;;;;;5011472;28;20046;-67
2023/09/08 02:32:00;;;;;;;9.30;7.85;;;;;;;;;;5011069;28;20048;-67
2023/09/08 02:34:27;;;;;;;11.75;7.97;;;;;;;;;;5011360;28;20050;-67
2023/09/08 02:36:54;;;;;;;9.32;7.45;;;;;;;;;;5011486;28;20046;-67
2023/09/08 02:39:23;;;;;;;8.55;7.40;;;;;;;;;;5011105;28;20697;-67
2023/09/08 02:41:49;;;;;;;11.65;6.95;;;;;;;;;;5010858;28;20054;-67
2023/09/08 02:44:16;;;;;;;10.75;7.65;;;;;;;;;;5011267;28;20505;-67
2023/09/08 02:46:42;;;;;;;9.98;7.43;;;;;;;;;;5011233;28;20054;-68
2023/09/08 02:49:09;;;;;;;11.07;7.90;;;;;;;;;;5011115;28;20052;-67
2023/09/08 02:51:37;;;;;;;10.90;7.80;;;;;;;;;;5011138;28;20132;-67
2023/09/08 02:54:04;;;;;;;11.40;7.85;;;;;;;;;;5010215;28;20046;-67
2023/09/08 02:58:59;;;;;;;8.27;7.25;;;;;;;;;;4970815;28;20389;-71
2023/09/08 03:01:26;;;;;;;9.73;7.13;;;;;;;;;;4971979;28;20046;-71
2023/09/08 03:03:52;;;;;;;9.20;7.28;;;;;;;;;;4972208;28;20054;-71
2023/09/08 03:06:21;;;;;;;9.68;7.07;;;;;;;;;;4971794;28;20142;-69
2023/09/08 03:08:48;;;;;;;8.65;6.85;;;;;;;;;;4971689;28;20484;-70
2023/09/08 03:11:15;;;;;;;9.80;7.38;;;;;;;;;;4971705;28;20049;-69
2023/09/08 03:13:42;;;;;;;10.05;6.88;;;;;;;;;;4971882;28;20047;-71
2023/09/08 03:16:09;;;;;;;10.70;7.05;;;;;;;;;;4971691;28;20053;-71
2023/09/08 03:18:37;;;;;;;8.07;6.95;;;;;;;;;;4971647;28;20053;-71
2023/09/08 03:21:09;;;;;;;12.23;7.93;;;;;;;;;;4971150;28;20147;-70
2023/09/08 03:23:35;;;;;;;11.55;8.70;;;;;;;;;;4971782;28;20563;-71
2023/09/08 03:26:03;;;;;;;10.95;8.48;;;;;;;;;;4971519;28;20047;-71
2023/09/08 03:28:31;;;;;;;10.10;7.88;;;;;;;;;;4971628;28;20514;-71
2023/09/08 03:30:57;;;;;;;10.93;8.13;;;;;;;;;;4971114;28;20481;-71
2023/09/08 03:33:24;;;;;;;10.70;8.43;;;;;;;;;;4971279;28;20267;-71
2023/09/08 03:35:51;;;;;;;13.98;9.00;;;;;;;;;;4971223;28;20062;-71
2023/09/08 03:38:17;;;;;;;13.35;8.77;;;;;;;;;;4971429;28;20043;-71
2023/09/08 03:40:44;;;;;;;11.43;9.05;;;;;;;;;;4971323;28;20516;-71
2023/09/08 03:43:12;;;;;;;12.18;8.52;;;;;;;;;;4971203;28;20053;-71
2023/09/08 03:45:38;;;;;;;13.15;8.15;;;;;;;;;;4971236;28;20047;-71
2023/09/08 03:48:05;;;;;;;11.00;8.20;;;;;;;;;;4970996;28;20057;-70
2023/09/08 03:50:32;;;;;;;13.57;7.68;;;;;;;;;;4971077;28;20412;-70
2023/09/08 03:52:59;;;;;;;9.73;7.97;;;;;;;;;;4971446;28;20134;-70
2023/09/08 03:55:25;;;;;;;10.63;8.07;;;;;;;;;;4971372;28;20047;-72
2023/09/08 03:57:52;;;;;;;12.13;8.60;;;;;;;;;;4971197;28;20057;-70
2023/09/08 04:00:22;;;;;;;12.30;7.82;;;;;;;;;;4971564;28;20105;-72
2023/09/08 04:02:48;;;;;;;12.43;8.68;;;;;;;;;;4971624;28;20548;-69
2023/09/08 04:05:15;;;;;;;15.73;8.63;;;;;;;;;;4973238;28;20054;-71
2023/09/08 04:07:42;;;;;;;10.88;8.38;;;;;;;;;;4975359;28;20137;-71
2023/09/08 04:10:09;;;;;;;10.45;8.10;;;;;;;;;;4975367;28;20043;-70
2023/09/08 04:12:36;;;;;;;11.40;8.27;;;;;;;;;;4975157;28;20130;-71
2023/09/08 04:15:03;;;;;;;9.88;8.32;;;;;;;;;;4975216;28;20387;-71
2023/09/08 04:17:30;;;;;;;15.23;8.25;;;;;;;;;;4974854;28;20047;-72
2023/09/08 04:19:57;;;;;;;19.48;8.55;;;;;;;;;;4975077;28;20050;-71
2023/09/08 04:22:24;;;;;;;12.25;8.60;;;;;;;;;;4974991;28;20060;-72
2023/09/08 04:24:50;;;;;;;15.98;8.93;;;;;;;;;;4975184;28;20043;-71
2023/09/08 04:27:17;;;;;;;16.13;9.18;;;;;;;;;;4975196;28;20079;-71
2023/09/08 04:29:44;;;;;;;12.98;8.25;;;;;;;;;;4975152;28;20068;-72
2023/09/08 04:32:10;;;;;;;10.38;8.32;;;;;;;;;;4974983;28;20389;-72
2023/09/08 04:34:40;;;;;;;18.23;8.88;;;;;;;;;;4975290;28;20419;-70
2023/09/08 04:37:07;;;;;;;22.88;9.25;;;;;;;;;;4974962;28;20051;-70
2023/09/08 04:39:34;;;;;;;17.52;9.30;;;;;;;;;;4974752;28;20053;-72
2023/09/08 04:42:00;;;;;;;12.73;9.05;;;;;;;;;;4974496;28;20133;-71
2023/09/08 04:44:27;;;;;;;15.65;8.65;;;;;;;;;;4974466;28;20046;-69
2023/09/08 04:46:55;;;;;;;12.35;9.00;;;;;;;;;;4974258;28;20053;-71
2023/09/08 04:49:21;;;;;;;12.93;9.43;;;;;;;;;;4974509;28;20196;-71
2023/09/08 04:51:49;;;;;;;14.85;9.48;;;;;;;;;;4974629;28;20408;-71
2023/09/08 04:54:16;;;;;;;11.35;9.27;;;;;;;;;;4974710;28;20051;-72
2023/09/08 04:56:42;;;;;;;20.40;9.70;;;;;;;;;;4974362;28;20054;-72
2023/09/08 04:59:09;;;;;;;14.60;9.55;;;;;;;;;;4974231;28;20055;-71
2023/09/08 05:01:37;;;;;;;15.70;10.45;;;;;;;;;;4973977;28;20042;-69
2023/09/08 05:04:04;;;;;;;15.85;9.50;;;;;;;;;;4974649;28;20051;-70
2023/09/08 05:06:30;;;;;;;13.40;9.70;;;;;;;;;;4974547;28;20078;-72
2023/09/08 05:08:59;;;;;;;13.77;9.85;;;;;;;;;;4974135;28;20043;-71
2023/09/08 05:11:25;;;;;;;12.13;9.48;;;;;;;;;;4974007;28;20047;-72
2023/09/08 05:13:52;;;;;;;13.55;9.45;;;;;;;;;;4974692;28;20145;-71
2023/09/08 05:16:25;;;;;;;12.63;8.52;;;;;;;;;;4972996;28;20083;-71
2023/09/08 05:18:52;;;;;;;12.90;9.65;;;;;;;;;;4974371;28;20489;-71
2023/09/08 05:21:18;;;;;;;15.80;9.55;;;;;;;;;;4974086;28;20043;-71
2023/09/08 05:23:45;;;;;;;13.77;9.80;;;;;;;;;;4974087;28;20129;-71
2023/09/08 05:26:13;;;;;;;18.23;9.95;;;;;;;;;;4973511;28;20134;-71
2023/09/08 05:28:39;;;;;;;15.93;12.18;;;;;;;;;;4974165;28;20443;-74
2023/09/08 05:31:06;;;;;;;13.63;9.80;;;;;;;;;;4973700;28;20408;-72
2023/09/08 05:33:33;;;;;;;27.38;11.18;;;;;;;;;;4974036;28;20145;-72
2023/09/08 05:35:59;;;;;;;32.78;10.60;;;;;;;;;;4973634;28;20053;-72
2023/09/08 05:38:28;;;;;;;17.75;9.68;;;;;;;;;;4973584;28;20078;-73
2023/09/08 05:40:54;;;;;;;14.93;9.30;;;;;;;;;;4973026;28;20556;-73
2023/09/08 05:43:22;;;;;;;15.98;8.98;;;;;;;;;;4973570;28;20053;-72
2023/09/08 05:45:49;;;;;;;12.80;9.10;;;;;;;;;;4973675;28;20134;-73
2023/09/08 05:48:15;;;;;;;12.32;9.32;;;;;;;;;;4973603;28;20138;-72
2023/09/08 05:50:42;;;;;;;18.58;9.38;;;;;;;;;;4973620;28;20042;-72
2023/09/08 05:53:08;;;;;;;12.23;9.55;;;;;;;;;;4973149;28;20485;-73
2023/09/08 05:55:35;;;;;;;15.93;9.07;;;;;;;;;;4973310;28;20067;-72
2023/09/08 05:58:02;;;;;;;15.15;10.15;;;;;;;;;;4973401;28;20577;-72
2023/09/08 06:00:30;;;;;;;13.52;9.07;;;;;;;;;;4973546;28;20480;-72
2023/09/08 06:02:56;;;;;;;14.35;10.18;;;;;;;;;;4973004;28;20051;-72
2023/09/08 06:05:23;;;;;;;13.02;10.20;;;;;;;;;;4973210;28;20069;-73
2023/09/08 06:07:50;;;;;;;14.55;10.57;;;;;;;;;;4973092;28;20141;-72
2023/09/08 06:10:16;;;;;;;11.90;9.32;;;;;;;;;;4973238;28;20043;-72
2023/09/08 06:12:44;;;;;;;19.10;10.00;;;;;;;;;;4972675;28;20050;-73
2023/09/08 06:15:10;;;;;;;19.33;10.93;;;;;;;;;;4973132;28;20089;-73
2023/09/08 06:17:38;;;;;;;14.48;9.77;;;;;;;;;;4972963;28;20065;-72
2023/09/08 06:20:06;;;;;;;14.50;10.65;;;;;;;;;;4972930;28;20076;-72
2023/09/08 06:22:32;;;;;;;13.70;10.35;;;;;;;;;;4972558;28;20350;-72
2023/09/08 06:24:59;;;;;;;21.40;10.48;;;;;;;;;;4973125;28;20069;-73
2023/09/08 06:27:26;;;;;;;15.68;9.77;;;;;;;;;;4972691;28;20081;-72
2023/09/08 06:29:52;;;;;;;16.88;10.05;;;;;;;;;;4972549;28;20497;-72
2023/09/08 06:32:19;;;;;;;14.55;9.85;;;;;;;;;;4971899;28;20105;-73
2023/09/08 06:34:47;;;;;;;14.50;9.45;;;;;;;;;;4972474;28;20058;-73
2023/09/08 06:37:13;;;;;;;14.82;9.50;;;;;;;;;;4972624;28;20047;-73
2023/09/08 06:39:40;;;;;;;12.48;9.82;;;;;;;;;;4972317;28;20047;-73
2023/09/08 06:42:07;;;;;;;15.38;10.35;;;;;;;;;;4972317;28;20129;-72
2023/09/08 06:44:33;;;;;;;18.92;10.88;;;;;;;;;;4972088;28;20049;-72
2023/09/08 06:47:00;;;;;;;16.48;10.43;;;;;;;;;;4971452;28;20051;-73
2023/09/08 06:49:26;;;;;;;15.95;10.25;;;;;;;;;;4969952;28;20049;-72
2023/09/08 06:51:54;;;;;;;13.77;9.65;;;;;;;;;;4963114;28;20485;-73
2023/09/08 06:54:21;;;;;;;15.45;10.32;;;;;;;;;;4954906;28;20518;-73
2023/09/08 06:56:47;;;;;;;18.60;10.25;;;;;;;;;;4957264;28;20604;-73
2023/09/08 06:59:14;;;;;;;16.05;9.68;;;;;;;;;;4952240;28;20135;-73
2023/09/08 07:01:41;;;;;;;16.83;10.27;;;;;;;;;;4951888;28;20051;-72
2023/09/08 07:04:07;;;;;;;14.77;10.25;;;;;;;;;;4952691;28;20053;-72
2023/09/08 07:06:34;;;;;;;13.75;9.68;;;;;;;;;;4950830;28;20054;-72
2023/09/08 07:09:03;;;;;;;13.55;9.68;;;;;;;;;;4951854;28;20461;-73
2023/09/08 07:11:30;;;;;;;12.00;8.95;;;;;;;;;;4951972;28;20074;-73
2023/09/08 07:13:57;;;;;;;13.65;9.15;;;;;;;;;;4952649;28;20054;-73
2023/09/08 07:16:23;;;;;;;13.20;8.98;;;;;;;;;;4953188;28;20111;-72
2023/09/08 07:18:50;;;;;;;12.70;8.95;;;;;;;;;;4951184;28;20051;-72
2023/09/08 07:21:17;;;;;;;10.88;8.77;;;;;;;;;;4957247;28;20042;-72
2023/09/08 07:23:43;;;;;;;16.33;9.15;;;;;;;;;;4970062;28;20050;-72
2023/09/08 07:26:12;;;;;;;9.93;8.85;;;;;;;;;;4971782;28;20509;-72
2023/09/08 07:28:39;;;;;;;12.63;9.40;;;;;;;;;;4971064;28;20121;-73
2023/09/08 07:31:08;;;;;;;11.88;7.95;;;;;;;;;;4970253;28;20138;-72
2023/09/08 07:33:35;;;;;;;11.23;8.30;;;;;;;;;;4970062;28;20062;-72
2023/09/08 07:36:05;;;;;;;14.38;8.30;;;;;;;;;;4970281;28;20053;-73
2023/09/08 07:38:32;;;;;;;11.10;8.70;;;;;;;;;;4964256;28;20485;-73
2023/09/08 07:40:59;;;;;;;12.05;8.60;;;;;;;;;;4975287;28;20047;-73
2023/09/08 07:43:27;;;;;;;11.75;8.57;;;;;;;;;;4973938;28;20377;-72
2023/09/08 07:45:54;;;;;;;9.18;8.15;;;;;;;;;;4975880;28;20050;-72
2023/09/08 07:48:21;;;;;;;10.82;8.10;;;;;;;;;;4967530;28;20042;-73
2023/09/08 07:50:47;;;;;;;10.02;7.80;;;;;;;;;;4957013;28;20051;-73
2023/09/08 07:53:14;;;;;;;16.40;8.23;;;;;;;;;;4973967;28;20053;-73
2023/09/08 07:55:40;;;;;;;12.25;8.25;;;;;;;;;;4978280;28;20074;-73
2023/09/08 07:58:08;;;;;;;11.23;7.97;;;;;;;;;;4977612;28;20416;-73
2023/09/08 08:00:37;;;;;;;11.35;7.70;;;;;;;;;;4969048;28;20134;-73
2023/09/08 08:03:05;;;;;;;12.63;8.20;;;;;;;;;;4958138;28;20489;-73
2023/09/08 08:05:32;;;;;;;13.73;7.13;;;;;;;;;;4957563;28;20408;-72
2023/09/08 08:07:59;;;;;;;13.00;6.80;;;;;;;;;;4966208;28;20054;-73
2023/09/08 08:10:26;;;;;;;11.38;7.68;;;;;;;;;;4957780;28;20154;-73
2023/09/08 08:12:52;;;;;;;10.38;7.30;;;;;;;;;;4962329;28;20039;-73
2023/09/08 08:15:20;;;;;;;9.80;7.32;;;;;;;;;;4977122;28;20125;-72
2023/09/08 08:17:48;;;;;;;12.73;7.38;;;;;;;;;;4977423;28;20050;-73
2023/09/08 08:20:17;;;;;;;10.57;7.45;;;;;;;;;;4977388;28;20191;-73
2023/09/08 08:22:45;;;;;;;15.75;8.20;;;;;;;;;;4977082;28;20424;-73
2023/09/08 08:25:12;;;;;;;9.10;6.55;;;;;;;;;;4977095;28;20054;-73
2023/09/08 08:27:39;;;;;;;9.20;6.65;;;;;;;;;;4977255;28;20571;-73
2023/09/08 08:30:07;;;;;;;11.57;6.47;;;;;;;;;;4977590;28;20039;-73
2023/09/08 08:32:34;;;;;;;7.80;6.03;;;;;;;;;;4969009;28;20130;-73
2023/09/08 08:35:04;;;;;;;11.82;5.68;;;;;;;;;;4977383;28;20051;-73
2023/09/08 08:37:31;;;;;;;8.77;5.72;;;;;;;;;;4976624;28;20131;-73
2023/09/08 08:39:57;;;;;;;11.45;6.00;;;;;;;;;;4967855;28;20046;-73
2023/09/08 08:42:24;;;;;;;15.05;6.40;;;;;;;;;;4957053;28;20132;-73
2023/09/08 08:44:51;;;;;;;9.40;5.93;;;;;;;;;;4975032;28;20645;-74
2023/09/08 08:47:19;;;;;;;9.43;5.70;;;;;;;;;;4976153;28;20053;-74
2023/09/08 08:49:49;;;;;;;8.48;5.95;;;;;;;;;;4977244;28;20455;-73
2023/09/08 08:52:18;;;;;;;15.75;6.22;;;;;;;;;;4974689;28;20121;-73
2023/09/08 08:54:46;;;;;;;9.02;5.63;;;;;;;;;;4971552;28;20137;-73
2023/09/08 08:57:13;;;;;;;8.68;5.57;;;;;;;;;;4972863;28;20052;-74
2023/09/08 08:59:41;;;;;;;12.15;5.45;;;;;;;;;;5003978;23;20050;-66
2023/09/08 09:02:09;;;;;;;9.77;5.78;;;;;;;;;;4983867;28;20043;-68
2023/09/08 09:04:38;;;;;;;7.97;5.38;;;;;;;;;;4984911;28;20043;-68
2023/09/08 09:07:07;;;;;;;10.63;5.43;;;;;;;;;;4990898;28;20050;-68
2023/09/08 09:09:35;;;;;;;10.35;5.47;;;;;;;;;;4988555;28;20038;-69
2023/09/08 09:12:02;;;;;;;7.32;5.40;;;;;;;;;;4989719;28;20050;-68
2023/09/08 09:14:32;;;;;;;9.82;5.68;;;;;;;;;;4990229;28;20054;-68
2023/09/08 09:16:59;;;;;;;9.02;4.93;;;;;;;;;;4990199;28;20054;-68
2023/09/08 09:19:27;;;;;;;9.98;4.90;;;;;;;;;;4990150;28;20138;-68
2023/09/08 09:21:55;;;;;;;7.25;5.15;;;;;;;;;;4990113;28;20057;-68
2023/09/08 09:24:30;;;;;;;8.73;4.97;;;;;;;;;;4990346;28;20089;-68
2023/09/08 09:26:58;;;;;;;12.57;4.97;;;;;;;;;;4991203;28;20054;-68
2023/09/08 09:29:25;;;;;;;7.00;4.82;;;;;;;;;;4992829;28;20057;-69
2023/09/08 09:31:53;;;;;;;9.40;5.18;;;;;;;;;;4992480;28;20048;-68
2023/09/08 09:34:20;;;;;;;6.80;4.75;;;;;;;;;;4992764;28;20105;-69
2023/09/08 09:36:49;;;;;;;7.50;4.85;;;;;;;;;;4993104;28;20046;-68
2023/09/08 09:39:18;;;;;;;5.65;4.70;;;;;;;;;;4992707;28;20042;-68
2023/09/08 09:41:45;;;;;;;7.57;5.40;;;;;;;;;;4992389;28;20149;-68
2023/09/08 09:44:13;;;;;;;9.43;5.43;;;;;;;;;;4993199;28;20042;-68
2023/09/08 09:46:44;;;;;;;10.40;4.95;;;;;;;;;;4992294;28;20518;-68
2023/09/08 09:49:11;;;;;;;6.57;4.97;;;;;;;;;;4992603;28;20133;-68
2023/09/08 09:51:41;;;;;;;8.43;5.00;;;;;;;;;;4992247;28;20046;-68
2023/09/08 09:54:08;;;;;;;7.88;5.07;;;;;;;;;;4992920;28;20073;-69
2023/09/08 09:56:38;;;;;;;10.65;5.15;;;;;;;;;;4992468;28;20496;-68
2023/09/08 09:59:05;;;;;;;6.13;5.03;;;;;;;;;;4992046;28;20707;-68
2023/09/08 10:01:33;;;;;;;9.52;4.90;;;;;;;;;;4992207;28;20081;-68
2023/09/08 10:04:01;;;;;;;11.20;5.35;;;;;;;;;;4991882;28;20141;-69
2023/09/08 10:06:28;;;;;;;8.68;5.00;;;;;;;;;;4992396;28;20477;-68
2023/09/08 10:08:55;;;;;;;8.77;5.05;;;;;;;;;;4991981;28;20106;-68
2023/09/08 10:11:23;;;;;;;9.43;5.50;;;;;;;;;;4991606;28;20049;-68
2023/09/08 10:13:54;;;;;;;9.07;5.00;;;;;;;;;;4992094;28;20054;-68
2023/09/08 10:16:21;;;;;;;7.72;4.95;;;;;;;;;;4992328;28;20145;-68
2023/09/08 10:18:52;;;;;;;8.95;5.07;;;;;;;;;;4992163;28;20068;-68
2023/09/08 10:21:21;;;;;;;9.98;5.10;;;;;;;;;;4991990;28;20050;-68
2023/09/08 10:23:54;;;;;;;10.90;5.05;;;;;;;;;;4992253;28;20065;-68
2023/09/08 10:26:27;;;;;;;14.55;4.82;;;;;;;;;;4991980;28;20480;-68
2023/09/08 10:28:56;;;;;;;10.05;4.90;;;;;;;;;;4992070;28;20137;-68
2023/09/08 10:31:24;;;;;;;9.13;4.85;;;;;;;;;;4991580;28;20471;-68
2023/09/08 10:33:53;;;;;;;11.27;5.07;;;;;;;;;;4991801;28;20047;-68
2023/09/08 10:36:20;;;;;;;10.45;4.95;;;;;;;;;;4991646;28;20443;-68
2023/09/08 10:38:49;;;;;;;10.38;5.20;;;;;;;;;;4991366;28;20526;-69
2023/09/08 10:41:33;;;;;;;9.13;4.80;;;;;;;;;;4991393;28;20081;-68
2023/09/08 10:44:08;;;;;;;8.40;5.32;;;;;;;;;;4991781;28;20054;-68
2023/09/08 10:46:35;;;;;;;10.00;5.00;;;;;;;;;;4991515;28;20082;-68
2023/09/08 10:49:03;;;;;;;9.10;4.70;;;;;;;;;;4991061;28;20050;-68
2023/09/08 10:51:30;;;;;;;7.18;4.85;;;;;;;;;;4991029;28;20046;-72
2023/09/08 10:53:56;;;;;;;8.75;5.40;;;;;;;;;;4991553;28;20411;-68
2023/09/08 10:56:28;;;;;;;6.95;4.68;;;;;;;;;;4991621;28;20234;-68
2023/09/08 10:58:55;;;;;;;8.40;4.53;;;;;;;;;;4991155;28;20141;-69
2023/09/08 11:01:26;;;;;;;11.48;4.78;;;;;;;;;;4990912;28;20506;-68
2023/09/08 11:03:53;;;;;;;5.88;4.25;;;;;;;;;;4991624;28;20399;-69
2023/09/08 11:06:23;;;;;;;6.97;4.78;;;;;;;;;;4991325;28;20534;-69
2023/09/08 11:08:52;;;;;;;5.85;4.63;;;;;;;;;;4991256;28;20057;-68
2023/09/08 11:11:19;;;;;;;4.85;4.22;;;;;;;;;;4990636;28;20046;-69
2023/09/08 11:13:46;;;;;;;4.97;4.47;;;;;;;;;;4990894;28;20058;-68
2023/09/08 11:16:14;;;;;;;8.68;5.00;;;;;;;;;;4990554;28;20054;-69
2023/09/08 11:18:42;;;;;;;8.98;5.28;;;;;;;;;;4991292;28;20047;-69
2023/09/08 11:21:09;;;;;;;8.13;4.28;;;;;;;;;;4990764;28;20117;-69
2023/09/08 11:23:37;;;;;;;9.80;4.97;;;;;;;;;;4991111;28;20125;-69
2023/09/08 11:26:04;;;;;;;5.82;4.28;;;;;;;;;;4991126;28;20056;-68
2023/09/08 11:28:31;;;;;;;9.10;4.25;;;;;;;;;;4990849;28;20061;-69
2023/09/08 11:30:58;;;;;;;9.95;4.78;;;;;;;;;;4990273;28;20050;-69
2023/09/08 11:33:25;;;;;;;6.40;4.72;;;;;;;;;;4991430;28;20423;-68
2023/09/08 11:35:53;;;;;;;6.18;4.70;;;;;;;;;;4990908;28;20700;-69
2023/09/08 11:38:20;;;;;;;5.88;4.13;;;;;;;;;;4990992;28;20404;-68
2023/09/08 11:40:48;;;;;;;6.57;4.30;;;;;;;;;;4990884;28;20493;-68
2023/09/08 11:43:14;;;;;;;5.15;4.15;;;;;;;;;;4990366;28;20416;-68
2023/09/08 11:45:44;;;;;;;6.60;4.40;;;;;;;;;;4990900;28;20057;-69
2023/09/08 11:48:11;;;;;;;5.25;4.20;;;;;;;;;;4990957;28;20077;-69
2023/09/08 11:50:37;;;;;;;6.90;4.72;;;;;;;;;;4990933;28;20492;-68
2023/09/08 11:53:05;;;;;;;6.72;4.63;;;;;;;;;;4990784;28;20461;-69
2023/09/08 11:55:32;;;;;;;6.68;4.38;;;;;;;;;;4990826;28;20050;-69
2023/09/08 11:58:01;;;;;;;6.13;4.43;;;;;;;;;;4990769;28;20510;-69
2023/09/08 12:00:28;;;;;;;6.82;4.72;;;;;;;;;;4990933;28;20520;-69
2023/09/08 12:02:55;;;;;;;6.38;4.15;;;;;;;;;;4990531;28;20423;-68
2023/09/08 12:05:23;;;;;;;6.47;4.40;;;;;;;;;;4990386;28;20043;-69
2023/09/08 12:07:50;;;;;;;5.80;4.30;;;;;;;;;;4990497;28;20077;-68
2023/09/08 12:10:18;;;;;;;6.10;4.55;;;;;;;;;;4990324;28;20057;-69
2023/09/08 12:12:46;;;;;;;5.45;3.95;;;;;;;;;;4990469;28;20507;-69
2023/09/08 12:15:31;;;;;;;5.70;4.43;;;;;;;;;;4990657;28;20050;-69
2023/09/08 12:17:58;;;;;;;6.82;4.15;;;;;;;;;;4990739;28;20518;-69
2023/09/08 12:20:24;;;;;;;6.18;4.10;;;;;;;;;;4990333;28;20492;-69
2023/09/08 12:22:52;;;;;;;4.97;4.47;;;;;;;;;;4989903;28;20046;-69
2023/09/08 12:25:19;;;;;;;8.27;4.55;;;;;;;;;;4990851;28;20527;-69
2023/09/08 12:27:47;;;;;;;6.50;4.65;;;;;;;;;;4994343;28;20046;-69
2023/09/08 12:30:19;;;;;;;5.75;4.78;;;;;;;;;;4994099;28;20496;-69
2023/09/08 12:32:48;;;;;;;7.10;4.88;;;;;;;;;;4994030;28;20046;-69
2023/09/08 12:35:22;;;;;;;8.23;4.90;;;;;;;;;;4993802;28;20051;-69
2023/09/08 12:37:48;;;;;;;7.70;5.28;;;;;;;;;;4994142;28;20492;-69
2023/09/08 12:40:16;;;;;;;7.43;4.90;;;;;;;;;;4993911;28;20488;-69
2023/09/08 12:42:42;;;;;;;10.50;4.80;;;;;;;;;;4993781;28;20439;-69
2023/09/08 12:45:09;;;;;;;9.77;5.15;;;;;;;;;;4993971;28;20484;-69
2023/09/08 12:47:37;;;;;;;5.97;4.40;;;;;;;;;;4993619;28;20050;-68
2023/09/08 12:50:04;;;;;;;7.15;4.75;;;;;;;;;;4993762;28;20064;-69
2023/09/08 12:52:31;;;;;;;5.55;4.72;;;;;;;;;;4993335;28;20141;-69
2023/09/08 12:54:58;;;;;;;6.32;4.25;;;;;;;;;;4993885;28;20510;-68
2023/09/08 12:57:25;;;;;;;7.10;4.65;;;;;;;;;;4993719;28;20046;-68
2023/09/08 12:59:52;;;;;;;5.57;4.43;;;;;;;;;;4993345;28;20056;-69
2023/09/08 13:02:18;;;;;;;7.35;4.47;;;;;;;;;;4993400;28;20407;-69
2023/09/08 13:04:48;;;;;;;5.30;4.68;;;;;;;;;;4995025;28;20080;-69
2023/09/08 13:07:15;;;;;;;5.15;4.22;;;;;;;;;;4995632;28;20411;-69
2023/09/08 13:09:41;;;;;;;6.07;4.63;;;;;;;;;;4995598;28;20109;-69
2023/09/08 13:12:08;;;;;;;7.93;4.25;;;;;;;;;;4995823;28;20133;-69
2023/09/08 13:14:35;;;;;;;6.38;4.38;;;;;;;;;;4994856;28;20127;-67
2023/09/08 13:17:02;;;;;;;4.53;4.13;;;;;;;;;;4993654;28;20046;-67
2023/09/08 13:19:29;;;;;;;5.30;4.25;;;;;;;;;;4993748;28;20060;-67
2023/09/08 13:21:57;;;;;;;5.45;4.28;;;;;;;;;;4993741;28;20482;-67
2023/09/08 13:24:23;;;;;;;5.90;4.35;;;;;;;;;;4994017;28;20069;-67
2023/09/08 13:26:50;;;;;;;9.25;3.80;;;;;;;;;;4993878;28;20073;-68
2023/09/08 13:29:18;;;;;;;8.77;4.10;;;;;;;;;;4993935;28;20130;-67
2023/09/08 13:31:45;;;;;;;5.22;4.00;;;;;;;;;;4993108;28;20552;-68
2023/09/08 13:34:11;;;;;;;7.80;3.90;;;;;;;;;;4993588;28;20431;-68
2023/09/08 13:36:38;;;;;;;6.05;4.00;;;;;;;;;;4993531;28;20057;-68
2023/09/08 13:39:06;;;;;;;5.28;3.72;;;;;;;;;;4992862;28;20068;-68
2023/09/08 13:41:46;;;;;;;7.38;4.00;;;;;;;;;;4992801;28;20048;-68
2023/09/08 13:44:12;;;;;;;5.22;3.88;;;;;;;;;;4992746;28;20058;-68
2023/09/08 13:46:39;;;;;;;7.72;3.75;;;;;;;;;;4992875;28;20050;-68
2023/09/08 13:49:06;;;;;;;3.97;3.67;;;;;;;;;;4993007;28;20057;-68
2023/09/08 13:51:33;;;;;;;4.10;3.45;;;;;;;;;;4992510;28;20046;-68
2023/09/08 13:54:00;;;;;;;7.78;3.63;;;;;;;;;;4992828;28;20054;-68
2023/09/08 13:56:27;;;;;;;5.63;4.03;;;;;;;;;;4992609;28;20042;-68
2023/09/08 13:58:54;;;;;;;6.15;4.18;;;;;;;;;;4992011;28;20050;-68
2023/09/08 14:01:21;;;;;;;5.82;3.70;;;;;;;;;;4991483;28;20129;-68
2023/09/08 14:03:51;;;;;;;4.65;3.90;;;;;;;;;;4988320;28;20050;-68
2023/09/08 14:06:18;;;;;;;5.05;3.40;;;;;;;;;;4989893;28;20050;-67
2023/09/08 14:08:44;;;;;;;5.03;3.40;;;;;;;;;;4990862;28;20042;-67
2023/09/08 14:11:12;;;;;;;4.53;3.60;;;;;;;;;;4991153;28;20058;-68
2023/09/08 14:13:40;;;;;;;5.05;3.42;;;;;;;;;;4992114;28;20074;-68
2023/09/08 14:16:06;;;;;;;4.70;3.55;;;;;;;;;;4992182;28;20492;-68
2023/09/08 14:18:34;;;;;;;7.60;3.60;;;;;;;;;;4992418;28;20480;-68
2023/09/08 14:21:00;;;;;;;5.47;3.83;;;;;;;;;;4991574;28;20042;-68
2023/09/08 14:23:28;;;;;;;6.57;3.40;;;;;;;;;;4992099;28;20137;-68
2023/09/08 14:25:55;;;;;;;5.95;3.50;;;;;;;;;;4992192;28;20050;-68
2023/09/08 14:28:21;;;;;;;5.35;3.40;;;;;;;;;;4992168;28;20050;-68
2023/09/08 14:30:50;;;;;;;4.63;2.97;;;;;;;;;;4992018;28;20058;-68
2023/09/08 14:33:17;;;;;;;4.27;3.20;;;;;;;;;;4992030;28;20399;-68
2023/09/08 14:35:44;;;;;;;5.93;3.13;;;;;;;;;;4992107;28;20046;-68
2023/09/08 14:38:10;;;;;;;7.40;3.63;;;;;;;;;;4991570;28;20496;-68
2023/09/08 14:40:37;;;;;;;6.45;3.45;;;;;;;;;;4991908;28;20050;-68